Latest Weather Observations for McArthur River Mine

IDD60801

Issued at 5:01 am CST Thursday 25 August 2016 (issued every 30 minutes, with the page automatically refreshed every 10 minutes)

About weather observations | Map of weather stations | Latest weather observations for NT | Other Formats
Station Details ID: 014704 Name: MCARTHUR RIVER MINE AIRPORT Lat: -16.44 Lon: 136.08 Height: 40.0 m
Data from the previous 72 hours. | See also: Recent months at McArthur River Mine
Date/Time
CST
Temp
°C
App
Temp
°C
Dew
Point
°C
Rel
Hum
%
Delta-T
°C
Wind Press
QNH
hPa
Press
MSL
hPa
Rain since
9am
mm
Dir  Spd
km/h
Gust
km/h
Spd
kts
Gust
kts
25/05:00am 19.6 17.8 9.5 52 5.4 SSE 9 13 5 7 1012.9 1012.8 0.2
25/04:30am 19.4 18.2 9.6 53 5.2 SE 6 7 3 4 1012.8 1012.7 0.2
25/04:00am 20.4 18.9 9.3 49 5.9 SSE 7 11 4 6 1012.4 1012.3 0.2
25/03:30am 21.0 18.9 9.6 48 6.1 SSE 11 15 6 8 1012.4 1012.3 0.2
25/03:00am 21.2 19.0 9.4 47 6.3 SSE 11 15 6 8 1012.7 1012.6 0.2
25/02:30am 21.8 19.3 9.7 46 6.5 SSE 13 20 7 11 1012.7 1012.6 0.2
25/02:00am 22.2 20.3 10.4 47 6.5 SSE 11 20 6 11 1012.8 1012.7 0.2
25/01:30am 22.6 20.4 10.7 47 6.6 SSE 13 19 7 10 1012.8 1012.7 0.2
25/01:00am 23.2 21.0 10.9 46 6.8 SSE 13 19 7 10 1012.8 1012.7 0.2
25/12:30am 23.7 20.0 11.4 46 6.9 SSE 22 32 12 17 1012.8 1012.7 0.2
25/12:00am 24.2 21.2 11.9 46 7.0 SSE 19 35 10 19 1012.9 1012.8 0.2
 
Date/Time
CST
Temp
°C
App
Temp
°C
Dew
Point
°C
Rel
Hum
%
Delta-T
°C
Wind Press
QNH
hPa
Press
MSL
hPa
Rain since
9am
mm
Dir  Spd
km/h
Gust
km/h
Spd
kts
Gust
kts
24/11:30pm 24.9 21.4 12.2 45 7.3 SSE 22 33 12 18 1012.7 1012.6 0.2
24/11:00pm 25.7 22.9 12.5 44 7.6 SSE 19 28 10 15 1012.5 1012.4 0.2
24/10:30pm 26.2 23.1 11.5 40 8.4 S 19 26 10 14 1012.0 1011.9 0.2
24/10:00pm 26.9 23.7 11.4 38 8.8 S 19 24 10 13 1011.9 1011.8 0.2
24/09:30pm 27.5 24.6 11.1 36 9.3 S 17 28 9 15 1011.5 1011.4 0.2
24/09:00pm 28.1 24.3 11.2 35 9.7 S 22 30 12 16 1011.0 1010.9 0.2
24/08:56pm 28.1 24.3 11.2 35 9.7 S 22 30 12 16 1011.0 1010.9 0.2
24/08:45pm 28.4 24.9 11.0 34 9.9 S 20 26 11 14 1010.8 1010.7 0.2
24/08:30pm 28.6 26.0 10.8 33 10.2 SSW 15 26 8 14 1010.5 1010.3 0.2
24/08:00pm 28.8 26.6 10.9 33 10.2 SSW 13 19 7 10 1010.0 1009.8 0.2
24/07:30pm 29.2 27.3 11.7 34 10.2 SSW 13 19 7 10 1009.6 1009.4 0.2
24/07:00pm 29.7 27.4 11.7 33 10.5 SSW 15 20 8 11 1009.1 1008.9 0.2
24/06:30pm 30.5 27.3 11.9 31 10.9 SSW 20 28 11 15 1008.6 1008.4 0.2
24/06:00pm 31.4 28.3 12.2 30 11.3 SW 20 30 11 16 1008.0 1007.8 0.2
24/05:30pm 32.2 29.3 12.4 30 11.8 SSW 19 24 10 13 1007.6 1007.4 0.2
24/05:00pm 32.9 29.9 12.5 29 12.2 SSW 20 30 11 16 1007.4 1007.2 0.2
24/04:30pm 33.2 30.3 12.8 29 12.3 SW 20 32 11 17 1007.1 1006.9 0.2
24/04:00pm 32.9 29.7 13.0 30 12.0 SSW 22 30 12 16 1007.0 1006.8 0.2
24/03:30pm 33.2 30.6 13.8 31 11.8 WSW 20 32 11 17 1006.9 1006.7 0.2
24/03:00pm 33.6 32.1 14.1 30 12.0 WSW 15 24 8 13 1006.8 1006.6 0.2
24/02:30pm 33.4 31.4 14.9 32 11.5 SW 19 30 10 16 1007.0 1006.8 0.2
24/02:00pm 32.9 31.2 15.8 35 10.7 SSW 19 26 10 14 1007.4 1007.2 0.2
24/01:30pm 32.3 30.7 16.6 39 9.9 SW 20 28 11 15 1007.9 1007.7 0.2
24/01:00pm 32.0 31.6 15.1 36 10.4 W 11 17 6 9 1008.4 1008.2 0.2
24/12:30pm 32.6 31.6 15.6 36 10.6 WNW 15 30 8 16 1008.6 1008.4 0.2
24/12:00pm 31.9 30.3 15.0 36 10.4 W 17 26 9 14 1009.2 1009.0 0.2
24/11:30am 31.2 29.8 14.4 36 10.3 W 15 24 8 13 1009.8 1009.6 0.2
24/11:00am 31.2 31.1 16.0 40 9.5 WSW 11 20 6 11 1010.3 1010.1 0.2
24/10:30am 30.3 31.1 18.1 48 7.8 WNW 11 20 6 11 1010.5 1010.3 0.2
24/10:00am 29.7 29.1 17.5 48 7.7 W 17 26 9 14 1010.8 1010.7 0.2
24/09:30am 29.3 30.4 19.6 56 6.3 WNW 13 20 7 11 1011.0 1010.9 0.0
24/09:00am 27.8 30.2 20.9 66 4.6 NW 9 15 5 8 1010.9 1010.8 0.6
24/08:30am 26.1 28.3 22.6 81 2.4 NNW 15 20 8 11 1010.6 1010.4 0.6
24/08:00am 24.7 30.1 23.8 95 0.6 NNE 2 7 1 4 1010.6 1010.4 0.6
24/07:30am 24.0 29.5 24.0 100 0.0 N 2 6 1 3 1010.1 1009.9 0.6
24/07:00am 23.0 27.1 23.0 100 0.0 N 6 7 3 4 1009.8 1009.6 0.6
24/06:30am 23.1 27.3 23.1 100 0.0 NE 6 7 3 4 1009.4 1009.2 0.6
24/06:11am 23.4 27.8 23.4 100 0.0 NNE 6 7 3 4 1009.3 1009.1 0.6
24/06:00am 23.5 29.1 23.5 100 0.0 CALM 0 0 0 0 1009.3 1009.1 0.6
24/05:58am 23.5 29.1 23.5 100 0.0 CALM 0 0 0 0 1009.3 1009.1 0.6
24/05:53am 23.7 29.4 23.7 100 0.0 CALM 0 0 0 0 1009.2 1009.0 0.6
24/05:34am 23.9 29.7 23.9 100 0.0 CALM 0 0 0 0 1009.2 1009.0 0.4
24/05:30am 24.1 29.2 23.4 96 0.5 WNW 2 6 1 3 1009.2 1009.0 0.0
24/05:00am 24.1 29.0 23.1 94 0.7 NW 2 6 1 3 1009.0 1008.8 0.0
24/04:30am 24.1 29.5 23.2 95 0.6 CALM 0 0 0 0 1008.7 1008.5 0.0
24/04:25am 24.1 29.1 23.2 95 0.6 W 2 9 1 5 1008.6 1008.4 0.0
24/04:23am 24.0 28.6 23.1 95 0.6 W 4 9 2 5 1008.7 1008.5 0.0
24/04:04am 23.8 26.8 23.3 97 0.3 SW 13 19 7 10 1008.7 1008.5 0.0
24/04:00am 23.7 26.8 23.5 99 0.1 SW 13 19 7 10 1008.8 1008.6 0.0
24/03:37am 23.1 25.2 23.1 100 0.0 SW 17 24 9 13 1008.6 1008.4 0.0
24/03:30am 23.1 27.1 23.1 100 0.0 NW 7 19 4 10 1008.4 1008.2 0.0
24/03:00am 23.0 27.1 23.0 100 0.0 N 6 7 3 4 1008.1 1007.9 0.0
24/02:47am 23.0 27.1 23.0 100 0.0 N 6 7 3 4 1007.9 1007.7 0.0
24/02:30am 22.9 26.8 22.9 100 0.0 NNE 7 9 4 5 1007.9 1007.7 0.0
24/02:29am 22.9 26.8 22.9 100 0.0 NNE 7 9 4 5 1007.9 1007.7 0.0
24/02:00am 23.2 28.2 23.2 100 0.0 N 2 7 1 4 1008.1 1007.9 0.0
24/01:30am 23.2 27.3 22.9 98 0.2 NNE 6 7 3 4 1008.2 1008.0 0.0
24/01:00am 23.6 27.5 22.6 94 0.7 N 6 6 3 3 1008.4 1008.2 0.0
24/12:30am 23.8 27.7 22.6 93 0.8 NNE 6 9 3 5 1008.6 1008.4 0.0
24/12:00am 24.0 27.6 22.4 91 1.1 NNE 7 13 4 7 1008.7 1008.5 0.0
 
Date/Time
CST
Temp
°C
App
Temp
°C
Dew
Point
°C
Rel
Hum
%
Delta-T
°C
Wind Press
QNH
hPa
Press
MSL
hPa
Rain since
9am
mm
Dir  Spd
km/h
Gust
km/h
Spd
kts
Gust
kts
23/11:30pm 24.3 27.4 22.2 88 1.4 NNE 9 15 5 8 1008.7 1008.5 0.0
23/11:00pm 24.4 27.3 21.7 85 1.8 NNE 9 15 5 8 1008.8 1008.6 0.0
23/10:30pm 24.8 26.9 20.9 79 2.6 NE 11 19 6 10 1008.7 1008.5 0.0
23/10:00pm 25.2 26.8 20.0 73 3.4 NNE 11 19 6 10 1008.7 1008.5 0.0
23/09:30pm 25.7 26.6 19.3 67 4.1 NNE 13 20 7 11 1008.4 1008.2 0.0
23/09:20pm 25.9 26.9 19.5 68 4.1 NE 13 20 7 11 1008.4 1008.2 0.0
23/09:04pm 26.1 26.6 19.2 65 4.4 NNE 15 24 8 13 1008.3 1008.1 0.0
23/09:00pm 26.1 26.6 19.2 65 4.4 NNE 15 30 8 16 1008.3 1008.1 0.0
23/08:56pm 26.2 26.0 19.3 65 4.4 NNE 19 30 10 16 1008.3 1008.1 0.0
23/08:35pm 26.5 26.6 19.1 64 4.8 NNE 17 26 9 14 1008.1 1007.9 0.0
23/08:30pm 26.5 26.5 18.9 63 4.9 NNE 17 28 9 15 1008.0 1007.8 0.0
23/08:00pm 27.1 27.1 18.1 58 5.7 NNE 15 22 8 12 1007.7 1007.5 0.0
23/07:30pm 27.8 27.6 17.6 53 6.5 NNE 15 24 8 13 1007.2 1007.0 0.0
23/07:00pm 28.9 28.2 16.5 47 7.7 NNE 15 28 8 15 1006.6 1006.4 0.0
23/06:30pm 29.6 28.4 17.4 47 7.8 NE 20 33 11 18 1006.0 1005.8 0.0
23/06:00pm 30.4 29.4 17.5 46 8.2 NE 19 30 10 16 1005.5 1005.3 0.0
23/05:30pm 31.2 30.5 18.2 46 8.4 NE 19 30 10 16 1005.0 1004.8 0.0
23/05:00pm 33.1 33.5 18.1 41 9.7 N 13 20 7 11 1004.7 1004.5 0.0
23/04:30pm 33.8 31.4 14.3 31 12.0 NNW 20 30 11 16 1004.5 1004.3 0.0
23/04:00pm 35.1 33.1 14.9 29 12.6 NW 19 30 10 16 1004.4 1004.2 0.0
23/03:30pm 33.6 31.5 14.6 31 11.8 NNW 19 30 10 16 1004.5 1004.3 0.0
23/03:00pm 33.3 32.4 15.8 35 11.0 N 15 26 8 14 1004.7 1004.5 0.0
23/02:30pm 33.4 31.9 16.3 36 10.8 N 19 30 10 16 1005.0 1004.8 0.0
23/02:00pm 33.2 32.0 17.0 38 10.3 NNW 19 30 10 16 1005.5 1005.3 0.0
23/01:30pm 32.7 31.3 16.9 38 10.1 N 20 28 11 15 1006.1 1005.9 0.0
23/01:00pm 32.5 31.7 17.9 41 9.4 NNW 19 30 10 16 1006.8 1006.6 0.0
23/12:30pm 31.2 30.4 17.9 45 8.6 NW 19 32 10 17 1007.6 1007.4 0.0
23/12:00pm 32.0 31.1 18.2 43 8.9 NNW 20 32 11 17 1008.1 1007.9 0.0
23/11:30am 30.3 29.4 18.1 48 7.8 NNW 20 30 11 16 1008.9 1008.7 0.0
23/11:00am 30.1 29.4 18.2 49 7.6 N 19 28 10 15 1009.4 1009.2 0.0
23/10:30am 29.4 28.8 18.5 52 7.0 NNW 19 30 10 16 1009.7 1009.5 0.0
23/10:00am 29.5 28.9 18.9 53 6.9 NNW 20 33 11 18 1009.8 1009.6 0.0
23/09:30am 28.4 27.2 19.3 57 5.9 N 24 35 13 19 1009.9 1009.7 0.0
23/09:02am 27.7 26.9 19.2 60 5.5 NNW 22 33 12 18 1010.0 1009.8 0.0
23/09:00am 27.8 27.4 19.3 60 5.5 NNW 20 33 11 18 1010.0 1009.8 0.0
23/08:43am 27.4 27.3 20.0 64 4.8 NNW 20 30 11 16 1010.1 1009.9 0.0
23/08:30am 26.7 27.0 20.3 68 4.2 N 19 32 10 17 1010.1 1009.9 0.0
23/08:12am 26.3 28.1 21.1 73 3.4 N 13 20 7 11 1009.8 1009.6 0.0
23/08:00am 25.4 28.0 21.9 81 2.3 NNE 11 15 6 8 1009.8 1009.6 0.0
23/07:58am 25.2 28.2 21.9 82 2.2 NNE 9 15 5 8 1009.8 1009.6 0.0
23/07:33am 24.7 27.6 22.4 87 1.5 NNE 11 17 6 9 1009.6 1009.4 0.0
23/07:30am 24.6 27.5 22.5 88 1.4 NNE 11 17 6 9 1009.6 1009.4 0.0
23/07:14am 24.5 27.7 22.4 88 1.4 N 9 17 5 9 1009.6 1009.4 0.0
23/07:13am 24.5 27.8 22.6 89 1.3 N 9 17 5 9 1009.6 1009.4 0.0
23/07:00am 24.5 27.4 22.4 88 1.4 N 11 20 6 11 1009.5 1009.3 0.0
23/06:30am 24.9 26.8 21.4 81 2.3 N 13 20 7 11 1009.3 1009.1 0.0
23/06:00am 24.5 26.9 21.6 84 1.9 N 11 17 6 9 1009.0 1008.8 0.0
23/05:30am 24.5 26.4 21.4 83 2.1 N 13 17 7 9 1008.7 1008.5 0.0
23/05:00am 24.6 26.8 21.1 81 2.3 N 11 22 6 12 1008.5 1008.3 0.0
23/04:30am 24.6 25.6 21.1 81 2.3 N 17 24 9 13 1008.4 1008.2 0.0
23/04:00am 24.5 26.4 21.4 83 2.1 N 13 19 7 10 1008.1 1007.9 0.0
23/03:30am 24.1 26.9 21.6 86 1.7 N 9 15 5 8 1008.1 1007.9 0.0
23/03:00am 23.9 26.8 21.8 88 1.4 N 9 15 5 8 1008.1 1007.9 0.0
23/02:30am 23.9 26.1 21.8 88 1.4 N 13 20 7 11 1008.2 1008.0 0.0
23/02:00am 23.9 26.2 21.4 86 1.7 NNE 11 20 6 11 1008.5 1008.3 0.0
23/01:30am 23.5 26.0 21.8 90 1.1 NNE 11 19 6 10 1008.9 1008.7 0.0
23/01:07am 23.5 25.8 21.4 88 1.4 NNE 11 15 6 8 1009.0 1008.8 0.0
23/01:00am 23.4 25.7 21.3 88 1.4 NNE 11 19 6 10 1009.0 1008.8 0.0
23/12:56am 23.5 25.8 21.4 88 1.4 NNE 11 19 6 10 1009.0 1008.8 0.0
23/12:30am 23.3 25.7 20.8 86 1.6 NNE 9 19 5 10 1009.0 1008.8 0.0
23/12:00am 23.5 25.9 20.8 85 1.8 NNE 9 15 5 8 1009.2 1009.0 0.0
 
Date/Time
CST
Temp
°C
App
Temp
°C
Dew
Point
°C
Rel
Hum
%
Delta-T
°C
Wind Press
QNH
hPa
Press
MSL
hPa
Rain since
9am
mm
Dir  Spd
km/h
Gust
km/h
Spd
kts
Gust
kts
22/11:30pm 23.7 25.4 20.2 81 2.3 NE 11 17 6 9 1008.9 1008.7 0.0
22/11:00pm 24.0 25.3 20.1 79 2.5 NE 13 22 7 12 1009.1 1008.9 0.0
22/10:30pm 24.3 25.4 19.6 75 3.0 NE 13 17 7 9 1009.3 1009.1 0.0
22/10:00pm 24.5 24.8 19.6 74 3.2 NE 17 26 9 14 1009.4 1009.2 0.0
22/09:30pm 24.8 25.7 19.2 71 3.6 NE 13 24 7 13 1009.3 1009.1 0.0
22/09:00pm 25.3 25.2 18.7 67 4.2 NE 17 30 9 16 1009.1 1008.9 0.0
22/08:30pm 25.8 25.3 17.7 61 5.1 NE 17 28 9 15 1008.8 1008.6 0.0
22/08:00pm 27.0 26.0 16.6 53 6.5 NE 17 28 9 15 1008.2 1008.0 0.0
22/07:30pm 27.9 25.5 13.8 42 8.4 NNE 19 26 10 14 1007.8 1007.6 0.0
22/07:00pm 28.7 26.4 13.0 38 9.3 NE 17 26 9 14 1007.2 1007.0 0.0
22/06:30pm 29.7 27.6 13.5 37 9.7 NNE 17 26 9 14 1006.7 1006.5 0.0
22/06:00pm 30.7 28.2 13.5 35 10.3 NE 19 28 10 15 1006.4 1006.2 0.0
22/05:30pm 31.5 29.1 13.7 33 10.8 NNE 19 28 10 15 1006.0 1005.8 0.0
22/05:00pm 31.7 29.9 14.4 35 10.6 NNE 17 28 9 15 1005.8 1005.6 0.0
22/04:30pm 31.9 30.5 14.5 34 10.7 N 15 24 8 13 1005.9 1005.7 0.0
22/04:00pm 32.2 30.3 14.3 33 10.9 NNE 17 24 9 13 1005.8 1005.6 0.0
22/03:30pm 33.3 31.1 13.4 30 12.1 NNE 17 26 9 14 1005.9 1005.7 0.0
22/03:00pm 33.9 32.1 14.4 31 12.0 N 17 28 9 15 1006.2 1006.0 0.0
22/02:30pm 32.4 31.1 13.6 32 11.4 N 13 26 7 14 1006.6 1006.4 0.0
22/02:00pm 32.8 31.2 13.9 31 11.5 N 15 20 8 11 1007.1 1006.9 0.0
22/01:30pm 32.6 30.9 14.7 34 11.0 NNE 17 28 9 15 1007.6 1007.4 0.0
22/01:00pm 32.1 31.5 15.6 37 10.3 N 13 20 7 11 1008.1 1007.9 0.0
22/12:30pm 31.2 30.2 15.6 39 9.7 N 15 26 8 14 1008.7 1008.5 0.0
22/12:00pm 30.5 29.4 15.4 40 9.3 NNW 15 26 8 14 1009.3 1009.1 0.0
22/11:30am 30.0 29.2 16.1 43 8.7 NNW 15 22 8 12 1009.9 1009.7 0.0
22/11:00am 30.3 29.3 15.6 41 9.1 NNW 15 28 8 15 1010.6 1010.4 0.0
22/10:30am 29.3 28.1 16.1 44 8.2 N 17 26 9 14 1011.0 1010.9 0.0
22/10:00am 28.4 27.6 17.0 50 7.2 NNW 17 26 9 14 1011.3 1011.2 0.0
22/09:30am 27.0 27.7 18.0 58 5.7 N 11 19 6 10 1011.3 1011.2 0.0
22/09:00am 25.5 27.7 20.3 73 3.4 N 9 13 5 7 1011.3 1011.2 0.0
22/08:51am 25.0 27.4 20.9 78 2.7 N 9 15 5 8 1011.3 1011.2 0.0
22/08:30am 23.6 26.0 21.5 88 1.4 N 11 15 6 8 1011.2 1011.1 0.0
22/08:00am 23.1 26.3 22.4 96 0.5 N 9 13 5 7 1010.9 1010.8 0.0
22/07:52am 23.2 26.5 22.5 96 0.5 N 9 15 5 8 1010.7 1010.6 0.0
22/07:30am 22.8 26.1 22.6 99 0.1 N 9 13 5 7 1010.5 1010.3 0.0
22/07:27am 22.7 26.1 22.7 100 0.0 N 9 13 5 7 1010.5 1010.3 0.0
22/07:12am 22.4 26.0 22.4 100 0.0 N 7 11 4 6 1010.5 1010.3 0.0
22/07:08am 22.4 25.6 22.4 100 0.0 N 9 13 5 7 1010.5 1010.3 0.0
22/07:00am 22.3 25.9 22.3 100 0.0 N 7 13 4 7 1010.4 1010.2 0.0
22/06:30am 22.4 24.9 22.4 100 0.0 N 13 19 7 10 1010.1 1009.9 0.0
22/06:09am 22.3 25.9 22.3 100 0.0 N 7 13 4 7 1010.0 1009.8 0.0
22/06:00am 22.3 25.5 22.3 100 0.0 N 9 13 5 7 1010.0 1009.8 0.0
22/05:50am 22.2 25.3 22.2 100 0.0 N 9 15 5 8 1009.8 1009.6 0.0
22/05:30am 22.1 25.6 22.1 100 0.0 N 7 11 4 6 1009.4 1009.2 0.0

Other Formats:

Comma delimited format used in spreadsheet applications
http://www.bom.gov.au/fwo/IDD60801/IDD60801.94239.axf

JavaScript Object Notation format (JSON) in row-major order
http://www.bom.gov.au/fwo/IDD60801/IDD60801.94239.json